sensor_id;sensor_type;location;lat;lon;timestamp;pressure;altitude;pressure_sealevel;temperature;humidity
59419;BME280;45224;50.904;6.038;2022-12-18T00:01:19;100903.91;;;-5.08;76.82
59419;BME280;45224;50.904;6.038;2022-12-18T00:02:50;100898.09;;;-5.17;76.82
59419;BME280;45224;50.904;6.038;2022-12-18T00:04:23;100895.84;;;-5.14;76.26
59419;BME280;45224;50.904;6.038;2022-12-18T00:05:54;100900.13;;;-5.13;76.79
59419;BME280;45224;50.904;6.038;2022-12-18T00:07:25;100911.97;;;-5.12;76.65
59419;BME280;45224;50.904;6.038;2022-12-18T00:08:57;100907.81;;;-5.11;76.42
59419;BME280;45224;50.904;6.038;2022-12-18T00:10:28;100911.75;;;-5.15;76.66
59419;BME280;45224;50.904;6.038;2022-12-18T00:11:59;100907.16;;;-5.09;76.17
59419;BME280;45224;50.904;6.038;2022-12-18T00:13:29;100911.97;;;-5.12;76.17
59419;BME280;45224;50.904;6.038;2022-12-18T00:15:00;100910.34;;;-5.11;75.89
59419;BME280;45224;50.904;6.038;2022-12-18T00:16:30;100906.69;;;-5.15;76.04
59419;BME280;45224;50.904;6.038;2022-12-18T00:18:03;100906.44;;;-5.18;76.17
59419;BME280;45224;50.904;6.038;2022-12-18T00:19:33;100902.53;;;-5.25;75.80
59419;BME280;45224;50.904;6.038;2022-12-18T00:21:08;100901.53;;;-5.27;76.03
59419;BME280;45224;50.904;6.038;2022-12-18T00:22:38;100915.53;;;-5.30;75.82
59419;BME280;45224;50.904;6.038;2022-12-18T00:24:10;100923.97;;;-5.30;76.26
59419;BME280;45224;50.904;6.038;2022-12-18T00:25:41;100927.88;;;-5.34;76.21
59419;BME280;45224;50.904;6.038;2022-12-18T00:27:11;100920.31;;;-5.34;76.07
59419;BME280;45224;50.904;6.038;2022-12-18T00:28:42;100918.28;;;-5.38;76.38
59419;BME280;45224;50.904;6.038;2022-12-18T00:30:13;100909.72;;;-5.40;76.45
59419;BME280;45224;50.904;6.038;2022-12-18T00:31:44;100909.72;;;-5.40;76.51
59419;BME280;45224;50.904;6.038;2022-12-18T00:33:14;100916.56;;;-5.39;76.25
59419;BME280;45224;50.904;6.038;2022-12-18T00:34:45;100918.28;;;-5.38;76.61
59419;BME280;45224;50.904;6.038;2022-12-18T00:36:17;100919.69;;;-5.41;76.69
59419;BME280;45224;50.904;6.038;2022-12-18T00:37:48;100922.34;;;-5.40;76.46
59419;BME280;45224;50.904;6.038;2022-12-18T00:39:19;100914.16;;;-5.37;76.34
59419;BME280;45224;50.904;6.038;2022-12-18T00:40:49;100908.22;;;-5.38;76.73
59419;BME280;45224;50.904;6.038;2022-12-18T00:42:20;100898.78;;;-5.40;76.74
59419;BME280;45224;50.904;6.038;2022-12-18T00:44:11;100899.41;;;-5.43;76.42
59419;BME280;45224;50.904;6.038;2022-12-18T00:45:42;100912.38;;;-5.38;76.46
59419;BME280;45224;50.904;6.038;2022-12-18T00:47:14;100911.75;;;-5.36;76.38
59419;BME280;45224;50.904;6.038;2022-12-18T00:48:45;100913.50;;;-5.35;76.33
59419;BME280;45224;50.904;6.038;2022-12-18T00:50:15;100891.09;;;-5.42;76.24
59419;BME280;45224;50.904;6.038;2022-12-18T00:51:46;100900.28;;;-5.32;76.12
59419;BME280;45224;50.904;6.038;2022-12-18T00:53:17;100890.69;;;-5.36;76.06
59419;BME280;45224;50.904;6.038;2022-12-18T00:54:48;100893.34;;;-5.35;76.35
59419;BME280;45224;50.904;6.038;2022-12-18T00:56:19;100888.28;;;-5.35;76.32
59419;BME280;45224;50.904;6.038;2022-12-18T00:57:51;100885.78;;;-5.35;76.33
59419;BME280;45224;50.904;6.038;2022-12-18T00:59:22;100886.16;;;-5.30;75.88
59419;BME280;45224;50.904;6.038;2022-12-18T01:00:54;100889.31;;;-5.33;75.55
59419;BME280;45224;50.904;6.038;2022-12-18T01:02:28;100901.44;;;-5.39;76.12
59419;BME280;45224;50.904;6.038;2022-12-18T01:04:00;100891.72;;;-5.34;76.24
59419;BME280;45224;50.904;6.038;2022-12-18T01:05:31;100896.88;;;-5.33;76.04
59419;BME280;45224;50.904;6.038;2022-12-18T01:07:02;100897.13;;;-5.29;75.47
59419;BME280;45224;50.904;6.038;2022-12-18T01:08:33;100895.63;;;-5.27;75.83
59419;BME280;45224;50.904;6.038;2022-12-18T01:10:05;100890.28;;;-5.20;75.62
59419;BME280;45224;50.904;6.038;2022-12-18T01:11:36;100893.59;;;-5.21;75.15
59419;BME280;45224;50.904;6.038;2022-12-18T01:13:08;100887.69;;;-5.32;75.17
59419;BME280;45224;50.904;6.038;2022-12-18T01:14:38;100899.91;;;-5.26;75.30
59419;BME280;45224;50.904;6.038;2022-12-18T01:16:11;100893.34;;;-5.24;75.02
59419;BME280;45224;50.904;6.038;2022-12-18T01:17:42;100883.50;;;-5.32;75.23
59419;BME280;45224;50.904;6.038;2022-12-18T01:19:13;100880.47;;;-5.38;75.04
59419;BME280;45224;50.904;6.038;2022-12-18T01:20:44;100877.97;;;-5.27;74.83
59419;BME280;45224;50.904;6.038;2022-12-18T01:22:14;100867.13;;;-5.26;75.37
59419;BME280;45224;50.904;6.038;2022-12-18T01:23:45;100880.34;;;-5.19;74.67
59419;BME280;45224;50.904;6.038;2022-12-18T01:25:16;100870.28;;;-5.29;74.59
59419;BME280;45224;50.904;6.038;2022-12-18T01:26:47;100880.75;;;-5.24;74.48
59419;BME280;45224;50.904;6.038;2022-12-18T01:28:18;100878.72;;;-5.28;74.20
59419;BME280;45224;50.904;6.038;2022-12-18T01:29:49;100872.94;;;-5.27;74.42
59419;BME280;45224;50.904;6.038;2022-12-18T01:31:27;100881.47;;;-5.25;74.13
59419;BME280;45224;50.904;6.038;2022-12-18T01:32:58;100870.41;;;-5.27;74.16
59419;BME280;45224;50.904;6.038;2022-12-18T01:34:29;100876.19;;;-5.28;74.17
59419;BME280;45224;50.904;6.038;2022-12-18T01:35:59;100889.06;;;-5.46;74.34
59419;BME280;45224;50.904;6.038;2022-12-18T01:37:29;100879.63;;;-5.48;74.28
59419;BME280;45224;50.904;6.038;2022-12-18T01:39:04;100891.09;;;-5.42;74.47
59419;BME280;45224;50.904;6.038;2022-12-18T01:40:35;100892.88;;;-5.41;74.31
59419;BME280;45224;50.904;6.038;2022-12-18T01:42:14;100892.50;;;-5.45;73.90
59419;BME280;45224;50.904;6.038;2022-12-18T01:43:53;100896.00;;;-5.43;74.04
59419;BME280;45224;50.904;6.038;2022-12-18T01:45:29;100896.50;;;-5.47;73.79
59419;BME280;45224;50.904;6.038;2022-12-18T01:47:00;100896.38;;;-5.49;74.06
59419;BME280;45224;50.904;6.038;2022-12-18T01:48:31;100893.25;;;-5.57;74.38
59419;BME280;45224;50.904;6.038;2022-12-18T01:50:15;100898.41;;;-5.55;74.20
59419;BME280;45224;50.904;6.038;2022-12-18T01:51:46;100891.59;;;-5.56;74.09
59419;BME280;45224;50.904;6.038;2022-12-18T01:53:19;100892.88;;;-5.61;73.82
59419;BME280;45224;50.904;6.038;2022-12-18T01:54:51;100889.97;;;-5.66;73.90
59419;BME280;45224;50.904;6.038;2022-12-18T01:56:23;100878.75;;;-5.70;74.26
59419;BME280;45224;50.904;6.038;2022-12-18T01:57:55;100884.53;;;-5.71;74.33
59419;BME280;45224;50.904;6.038;2022-12-18T01:59:27;100869.69;;;-5.78;74.69
59419;BME280;45224;50.904;6.038;2022-12-18T02:01:00;100881.50;;;-5.77;74.85
59419;BME280;45224;50.904;6.038;2022-12-18T02:02:30;100871.44;;;-5.77;74.44
59419;BME280;45224;50.904;6.038;2022-12-18T02:04:20;100881.03;;;-5.73;74.71
59419;BME280;45224;50.904;6.038;2022-12-18T02:06:04;100885.81;;;-5.76;74.50
59419;BME280;45224;50.904;6.038;2022-12-18T02:07:58;100883.16;;;-5.77;74.65
59419;BME280;45224;50.904;6.038;2022-12-18T02:09:50;100877.38;;;-5.76;74.78
59419;BME280;45224;50.904;6.038;2022-12-18T02:11:32;100883.53;;;-5.73;74.67
59419;BME280;45224;50.904;6.038;2022-12-18T02:15:19;100874.72;;;-5.78;74.70
59419;BME280;45224;50.904;6.038;2022-12-18T02:19:14;100874.84;;;-5.76;74.42
59419;BME280;45224;50.904;6.038;2022-12-18T02:21:36;100870.56;;;-5.77;73.87
59419;BME280;45224;50.904;6.038;2022-12-18T02:23:04;100869.56;;;-5.79;73.86
59419;BME280;45224;50.904;6.038;2022-12-18T02:24:53;100869.44;;;-5.81;73.85
59419;BME280;45224;50.904;6.038;2022-12-18T02:26:31;100874.47;;;-5.81;73.62
59419;BME280;45224;50.904;6.038;2022-12-18T02:28:06;100872.44;;;-5.85;73.97
59419;BME280;45224;50.904;6.038;2022-12-18T02:29:46;100867.16;;;-5.88;73.99
59419;BME280;45224;50.904;6.038;2022-12-18T02:31:22;100864.91;;;-5.95;73.88
59419;BME280;45224;50.904;6.038;2022-12-18T02:32:55;100873.56;;;-5.92;73.92
59419;BME280;45224;50.904;6.038;2022-12-18T02:34:32;100874.97;;;-5.95;73.74
59419;BME280;45224;50.904;6.038;2022-12-18T02:36:08;100875.84;;;-5.95;73.88
59419;BME280;45224;50.904;6.038;2022-12-18T02:37:43;100878.91;;;-5.99;74.01
59419;BME280;45224;50.904;6.038;2022-12-18T02:39:15;100875.63;;;-5.98;74.23
59419;BME280;45224;50.904;6.038;2022-12-18T02:40:59;100866.44;;;-5.97;74.38
59419;BME280;45224;50.904;6.038;2022-12-18T02:42:31;100874.00;;;-5.97;74.16
59419;BME280;45224;50.904;6.038;2022-12-18T02:44:08;100864.91;;;-5.95;74.14
59419;BME280;45224;50.904;6.038;2022-12-18T02:45:52;100862.16;;;-5.98;74.08
59419;BME280;45224;50.904;6.038;2022-12-18T02:47:32;100853.22;;;-6.05;73.81
59419;BME280;45224;50.904;6.038;2022-12-18T02:51:23;100855.34;;;-6.10;74.13
59419;BME280;45224;50.904;6.038;2022-12-18T02:53:48;100857.72;;;-6.11;74.22
59419;BME280;45224;50.904;6.038;2022-12-18T02:55:18;100866.03;;;-6.12;74.18
59419;BME280;45224;50.904;6.038;2022-12-18T02:56:57;100849.78;;;-6.16;74.19
59419;BME280;45224;50.904;6.038;2022-12-18T03:02:25;100841.50;;;-6.15;74.13
59419;BME280;45224;50.904;6.038;2022-12-18T03:04:08;100844.00;;;-6.15;73.95
59419;BME280;45224;50.904;6.038;2022-12-18T03:05:48;100847.16;;;-6.17;74.26
59419;BME280;45224;50.904;6.038;2022-12-18T03:07:24;100846.88;;;-6.20;74.57
59419;BME280;45224;50.904;6.038;2022-12-18T03:09:01;100834.81;;;-6.25;74.33
59419;BME280;45224;50.904;6.038;2022-12-18T03:10:38;100835.19;;;-6.20;74.14
59419;BME280;45224;50.904;6.038;2022-12-18T03:12:30;100836.56;;;-6.24;73.93
59419;BME280;45224;50.904;6.038;2022-12-18T03:14:03;100832.28;;;-6.25;73.99
59419;BME280;45224;50.904;6.038;2022-12-18T03:15:42;100829.38;;;-6.29;74.23
59419;BME280;45224;50.904;6.038;2022-12-18T03:17:19;100818.81;;;-6.25;74.13
59419;BME280;45224;50.904;6.038;2022-12-18T03:19:11;100824.22;;;-6.20;74.06
59419;BME280;45224;50.904;6.038;2022-12-18T03:20:47;100830.38;;;-6.27;74.35
59419;BME280;45224;50.904;6.038;2022-12-18T03:22:23;100820.59;;;-6.24;74.04
59419;BME280;45224;50.904;6.038;2022-12-18T03:23:56;100833.66;;;-6.28;74.47
59419;BME280;45224;50.904;6.038;2022-12-18T03:25:30;100824.47;;;-6.28;74.39
59419;BME280;45224;50.904;6.038;2022-12-18T03:27:03;100820.06;;;-6.30;74.40
59419;BME280;45224;50.904;6.038;2022-12-18T03:28:41;100820.59;;;-6.24;74.52
59419;BME280;45224;50.904;6.038;2022-12-18T03:30:14;100822.22;;;-6.25;74.52
59419;BME280;45224;50.904;6.038;2022-12-18T03:31:54;100823.34;;;-6.31;75.23
59419;BME280;45224;50.904;6.038;2022-12-18T03:33:46;100818.94;;;-6.34;75.23
59419;BME280;45224;50.904;6.038;2022-12-18T03:35:22;100815.25;;;-6.48;76.12
59419;BME280;45224;50.904;6.038;2022-12-18T03:36:54;100809.94;;;-6.51;76.53
59419;BME280;45224;50.904;6.038;2022-12-18T03:38:27;100809.59;;;-6.45;76.64
59419;BME280;45224;50.904;6.038;2022-12-18T03:39:58;100811.13;;;-6.47;76.42
59419;BME280;45224;50.904;6.038;2022-12-18T03:47:09;100815.25;;;-6.48;76.93
59419;BME280;45224;50.904;6.038;2022-12-18T03:48:52;100819.25;;;-6.60;77.51
59419;BME280;45224;50.904;6.038;2022-12-18T03:50:46;100821.13;;;-6.68;77.64
59419;BME280;45224;50.904;6.038;2022-12-18T03:52:44;100815.34;;;-6.67;77.89
59419;BME280;45224;50.904;6.038;2022-12-18T03:54:20;100814.97;;;-6.71;77.97
59419;BME280;45224;50.904;6.038;2022-12-18T03:56:00;100821.25;;;-6.66;78.45
59419;BME280;45224;50.904;6.038;2022-12-18T03:57:37;100816.22;;;-6.66;78.31
59419;BME280;45224;50.904;6.038;2022-12-18T03:59:11;100815.56;;;-6.74;78.54
59419;BME280;45224;50.904;6.038;2022-12-18T04:00:44;100800.22;;;-6.77;79.07
59419;BME280;45224;50.904;6.038;2022-12-18T04:02:17;100799.09;;;-6.70;78.75
59419;BME280;45224;50.904;6.038;2022-12-18T04:03:49;100802.84;;;-6.75;78.90
59419;BME280;45224;50.904;6.038;2022-12-18T04:05:24;100801.59;;;-6.70;78.79
59419;BME280;45224;50.904;6.038;2022-12-18T04:06:56;100808.66;;;-6.76;78.87
59419;BME280;45224;50.904;6.038;2022-12-18T04:08:28;100808.00;;;-6.74;78.82
59419;BME280;45224;50.904;6.038;2022-12-18T04:10:10;100797.56;;;-6.79;78.96
59419;BME280;45224;50.904;6.038;2022-12-18T04:11:42;100806.13;;;-6.76;79.26
59419;BME280;45224;50.904;6.038;2022-12-18T04:13:24;100800.84;;;-6.80;79.57
59419;BME280;45224;50.904;6.038;2022-12-18T04:14:59;100793.16;;;-6.81;79.82
59419;BME280;45224;50.904;6.038;2022-12-18T04:16:30;100792.00;;;-6.85;79.75
59419;BME280;45224;50.904;6.038;2022-12-18T04:18:04;100798.28;;;-6.90;79.63
59419;BME280;45224;50.904;6.038;2022-12-18T04:19:42;100777.13;;;-7.02;79.95
59419;BME280;45224;50.904;6.038;2022-12-18T04:21:14;100779.00;;;-7.00;80.06
59419;BME280;45224;50.904;6.038;2022-12-18T04:22:46;100785.56;;;-6.91;79.98
59419;BME280;45224;50.904;6.038;2022-12-18T04:24:17;100791.41;;;-6.82;79.76
59419;BME280;45224;50.904;6.038;2022-12-18T04:25:56;100788.50;;;-6.87;79.88
59419;BME280;45224;50.904;6.038;2022-12-18T04:27:41;100801.34;;;-6.73;79.51
59419;BME280;45224;50.904;6.038;2022-12-18T04:29:12;100799.88;;;-6.71;79.43
59419;BME280;45224;50.904;6.038;2022-12-18T04:30:43;100791.53;;;-6.70;79.29
59419;BME280;45224;50.904;6.038;2022-12-18T04:32:14;100789.00;;;-6.81;79.43
59419;BME280;45224;50.904;6.038;2022-12-18T04:33:47;100786.25;;;-6.73;79.26
59419;BME280;45224;50.904;6.038;2022-12-18T04:35:18;100790.06;;;-6.68;79.42
59419;BME280;45224;50.904;6.038;2022-12-18T04:36:49;100778.50;;;-6.66;79.56
59419;BME280;45224;50.904;6.038;2022-12-18T04:38:20;100770.94;;;-6.76;79.78
59419;BME280;45224;50.904;6.038;2022-12-18T04:39:55;100765.72;;;-6.88;80.28
59419;BME280;45224;50.904;6.038;2022-12-18T04:41:33;100775.19;;;-6.75;80.01
59419;BME280;45224;50.904;6.038;2022-12-18T04:43:04;100777.34;;;-6.70;79.96
59419;BME280;45224;50.904;6.038;2022-12-18T04:44:36;100770.41;;;-6.83;80.03
59419;BME280;45224;50.904;6.038;2022-12-18T04:46:07;100772.28;;;-6.80;80.28
59419;BME280;45224;50.904;6.038;2022-12-18T04:47:38;100784.78;;;-6.71;79.85
59419;BME280;45224;50.904;6.038;2022-12-18T04:49:09;100786.03;;;-6.76;80.06
59419;BME280;45224;50.904;6.038;2022-12-18T04:50:40;100793.84;;;-6.63;79.87
59419;BME280;45224;50.904;6.038;2022-12-18T04:52:11;100784.91;;;-6.70;79.90
59419;BME280;45224;50.904;6.038;2022-12-18T04:53:41;100789.53;;;-6.74;80.09
59419;BME280;45224;50.904;6.038;2022-12-18T04:55:12;100801.13;;;-6.66;79.98
59419;BME280;45224;50.904;6.038;2022-12-18T04:56:42;100807.16;;;-6.64;79.69
59419;BME280;45224;50.904;6.038;2022-12-18T04:58:13;100793.78;;;-6.73;79.65
59419;BME280;45224;50.904;6.038;2022-12-18T04:59:44;100805.16;;;-6.58;79.39
59419;BME280;45224;50.904;6.038;2022-12-18T05:01:16;100797.47;;;-6.70;79.38
59419;BME280;45224;50.904;6.038;2022-12-18T05:02:47;100802.59;;;-6.79;79.71
59419;BME280;45224;50.904;6.038;2022-12-18T05:04:17;100804.00;;;-6.72;79.69
59419;BME280;45224;50.904;6.038;2022-12-18T05:05:51;100809.28;;;-6.69;79.62
59419;BME280;45224;50.904;6.038;2022-12-18T05:07:22;100807.53;;;-6.70;79.80
59419;BME280;45224;50.904;6.038;2022-12-18T05:08:52;100792.28;;;-6.82;79.64
59419;BME280;45224;50.904;6.038;2022-12-18T05:10:22;100799.22;;;-6.69;79.38
59419;BME280;45224;50.904;6.038;2022-12-18T05:11:53;100808.81;;;-6.65;79.07
59419;BME280;45224;50.904;6.038;2022-12-18T05:13:23;100797.47;;;-6.70;79.07
59419;BME280;45224;50.904;6.038;2022-12-18T05:14:54;100813.69;;;-6.76;79.24
59419;BME280;45224;50.904;6.038;2022-12-18T05:16:24;100810.78;;;-6.71;79.51
59419;BME280;45224;50.904;6.038;2022-12-18T05:17:56;100819.75;;;-6.64;79.01
59419;BME280;45224;50.904;6.038;2022-12-18T05:19:26;100814.56;;;-6.66;79.13
59419;BME280;45224;50.904;6.038;2022-12-18T05:20:56;100820.50;;;-6.65;79.00
59419;BME280;45224;50.904;6.038;2022-12-18T05:22:27;100829.31;;;-6.60;78.92
59419;BME280;45224;50.904;6.038;2022-12-18T05:23:57;100819.47;;;-6.67;78.96
59419;BME280;45224;50.904;6.038;2022-12-18T05:25:28;100823.78;;;-6.66;79.06
59419;BME280;45224;50.904;6.038;2022-12-18T05:26:58;100814.50;;;-6.86;79.43
59419;BME280;45224;50.904;6.038;2022-12-18T05:28:31;100817.78;;;-6.87;79.92
59419;BME280;45224;50.904;6.038;2022-12-18T05:30:02;100818.13;;;-6.93;79.69
59419;BME280;45224;50.904;6.038;2022-12-18T05:31:33;100824.50;;;-6.77;79.87
59419;BME280;45224;50.904;6.038;2022-12-18T05:33:03;100816.19;;;-6.76;79.72
59419;BME280;45224;50.904;6.038;2022-12-18T05:34:34;100814.97;;;-6.71;79.52
59419;BME280;45224;50.904;6.038;2022-12-18T05:36:06;100807.88;;;-6.86;79.76
59419;BME280;45224;50.904;6.038;2022-12-18T05:37:37;100805.56;;;-6.93;80.15
59419;BME280;45224;50.904;6.038;2022-12-18T05:39:07;100805.09;;;-6.89;80.22
59419;BME280;45224;50.904;6.038;2022-12-18T05:40:41;100810.38;;;-6.86;80.43
59419;BME280;45224;50.904;6.038;2022-12-18T05:42:12;100808.88;;;-6.84;80.22
59419;BME280;45224;50.904;6.038;2022-12-18T05:43:43;100802.19;;;-6.83;80.03
59419;BME280;45224;50.904;6.038;2022-12-18T05:45:13;100808.41;;;-6.80;79.91
59419;BME280;45224;50.904;6.038;2022-12-18T05:46:43;100801.94;;;-6.86;79.61
59419;BME280;45224;50.904;6.038;2022-12-18T05:48:15;100813.03;;;-6.74;79.58
59419;BME280;45224;50.904;6.038;2022-12-18T05:49:45;100814.06;;;-6.72;79.22
59419;BME280;45224;50.904;6.038;2022-12-18T05:51:18;100816.44;;;-6.73;79.16
59419;BME280;45224;50.904;6.038;2022-12-18T05:52:49;100814.69;;;-6.74;79.09
59419;BME280;45224;50.904;6.038;2022-12-18T05:54:19;100812.78;;;-6.77;79.41
59419;BME280;45224;50.904;6.038;2022-12-18T05:55:50;100817.41;;;-6.82;79.14
59419;BME280;45224;50.904;6.038;2022-12-18T05:57:20;100819.19;;;-6.81;79.21
59419;BME280;45224;50.904;6.038;2022-12-18T05:58:52;100809.03;;;-6.72;78.97
59419;BME280;45224;50.904;6.038;2022-12-18T06:00:23;100804.25;;;-6.69;78.60
59419;BME280;45224;50.904;6.038;2022-12-18T06:01:53;100801.97;;;-6.76;78.69
59419;BME280;45224;50.904;6.038;2022-12-18T06:03:24;100806.25;;;-6.75;78.34
59419;BME280;45224;50.904;6.038;2022-12-18T06:04:54;100805.25;;;-6.77;78.42
59419;BME280;45224;50.904;6.038;2022-12-18T06:06:26;100812.78;;;-6.77;78.93
59419;BME280;45224;50.904;6.038;2022-12-18T06:07:57;100810.00;;;-6.80;78.56
59419;BME280;45224;50.904;6.038;2022-12-18T06:09:28;100814.69;;;-6.74;78.49
59419;BME280;45224;50.904;6.038;2022-12-18T06:10:59;100805.34;;;-6.86;78.41
59419;BME280;45224;50.904;6.038;2022-12-18T06:12:29;100802.78;;;-6.96;79.11
59419;BME280;45224;50.904;6.038;2022-12-18T06:14:00;100806.59;;;-6.91;79.31
59419;BME280;45224;50.904;6.038;2022-12-18T06:15:32;100800.78;;;-6.90;79.19
59419;BME280;45224;50.904;6.038;2022-12-18T06:17:02;100801.03;;;-6.97;79.21
59419;BME280;45224;50.904;6.038;2022-12-18T06:18:33;100803.03;;;-6.93;79.46
59419;BME280;45224;50.904;6.038;2022-12-18T06:20:07;100792.50;;;-6.99;79.06
59419;BME280;45224;50.904;6.038;2022-12-18T06:21:38;100803.19;;;-6.91;79.67
59419;BME280;45224;50.904;6.038;2022-12-18T06:23:08;100799.38;;;-7.07;79.67
59419;BME280;45224;50.904;6.038;2022-12-18T06:24:39;100794.88;;;-7.01;80.04
59419;BME280;45224;50.904;6.038;2022-12-18T06:26:11;100798.72;;;-7.04;80.23
59419;BME280;45224;50.904;6.038;2022-12-18T06:27:42;100797.44;;;-7.09;80.13
59419;BME280;45224;50.904;6.038;2022-12-18T06:29:12;100800.22;;;-7.06;80.15
59419;BME280;45224;50.904;6.038;2022-12-18T06:30:44;100809.59;;;-6.95;80.09
59419;BME280;45224;50.904;6.038;2022-12-18T06:32:14;100792.22;;;-7.02;79.87
59419;BME280;45224;50.904;6.038;2022-12-18T06:33:45;100807.94;;;-6.94;79.27
59419;BME280;45224;50.904;6.038;2022-12-18T06:35:15;100811.88;;;-6.88;79.60
59419;BME280;45224;50.904;6.038;2022-12-18T06:36:46;100810.38;;;-6.86;79.31
59419;BME280;45224;50.904;6.038;2022-12-18T06:38:16;100804.81;;;-6.92;79.82
59419;BME280;45224;50.904;6.038;2022-12-18T06:39:47;100801.56;;;-6.91;79.82
59419;BME280;45224;50.904;6.038;2022-12-18T06:41:19;100803.69;;;-6.95;79.64
59419;BME280;45224;50.904;6.038;2022-12-18T06:42:50;100810.13;;;-6.89;79.45
59419;BME280;45224;50.904;6.038;2022-12-18T06:44:20;100813.63;;;-6.87;79.64
59419;BME280;45224;50.904;6.038;2022-12-18T06:45:58;100806.94;;;-6.97;79.69
59419;BME280;45224;50.904;6.038;2022-12-18T06:47:29;100808.91;;;-7.03;80.04
59419;BME280;45224;50.904;6.038;2022-12-18T06:48:59;100808.34;;;-6.90;79.68
59419;BME280;45224;50.904;6.038;2022-12-18T06:50:30;100806.25;;;-7.04;80.17
59419;BME280;45224;50.904;6.038;2022-12-18T06:52:00;100809.94;;;-7.01;80.16
59419;BME280;45224;50.904;6.038;2022-12-18T06:53:32;100814.97;;;-7.01;80.19
59419;BME280;45224;50.904;6.038;2022-12-18T06:55:03;100813.09;;;-6.93;80.33
59419;BME280;45224;50.904;6.038;2022-12-18T06:56:34;100816.25;;;-6.95;80.00
59419;BME280;45224;50.904;6.038;2022-12-18T06:58:04;100820.16;;;-6.89;79.98
59419;BME280;45224;50.904;6.038;2022-12-18T06:59:35;100816.38;;;-6.94;79.84
59419;BME280;45224;50.904;6.038;2022-12-18T07:01:08;100813.75;;;-6.95;79.94
59419;BME280;45224;50.904;6.038;2022-12-18T07:02:38;100810.72;;;-6.91;80.02
59419;BME280;45224;50.904;6.038;2022-12-18T07:04:09;100809.38;;;-6.88;79.82
59419;BME280;45224;50.904;6.038;2022-12-18T07:05:40;100811.91;;;-6.77;79.32
59419;BME280;45224;50.904;6.038;2022-12-18T07:07:11;100803.03;;;-6.93;79.66
59419;BME280;45224;50.904;6.038;2022-12-18T07:08:41;100798.53;;;-6.87;79.69
59419;BME280;45224;50.904;6.038;2022-12-18T07:10:12;100802.53;;;-6.99;80.03
59419;BME280;45224;50.904;6.038;2022-12-18T07:11:42;100798.91;;;-6.92;80.21
59419;BME280;45224;50.904;6.038;2022-12-18T07:13:13;100797.75;;;-6.96;80.39
59419;BME280;45224;50.904;6.038;2022-12-18T07:14:43;100804.94;;;-6.90;80.18
59419;BME280;45224;50.904;6.038;2022-12-18T07:16:16;100804.09;;;-6.81;79.74
59419;BME280;45224;50.904;6.038;2022-12-18T07:17:47;100804.72;;;-6.83;79.93
59419;BME280;45224;50.904;6.038;2022-12-18T07:19:17;100808.25;;;-6.81;79.73
59419;BME280;45224;50.904;6.038;2022-12-18T07:20:48;100802.56;;;-6.89;79.92
59419;BME280;45224;50.904;6.038;2022-12-18T07:22:18;100794.28;;;-6.88;79.86
59419;BME280;45224;50.904;6.038;2022-12-18T07:23:49;100798.00;;;-6.93;80.25
59419;BME280;45224;50.904;6.038;2022-12-18T07:25:19;100809.47;;;-6.86;80.17
59419;BME280;45224;50.904;6.038;2022-12-18T07:26:50;100801.03;;;-6.97;80.14
59419;BME280;45224;50.904;6.038;2022-12-18T07:28:20;100807.72;;;-6.87;80.50
59419;BME280;45224;50.904;6.038;2022-12-18T07:29:51;100799.25;;;-6.98;80.63
59419;BME280;45224;50.904;6.038;2022-12-18T07:31:21;100789.97;;;-6.99;80.93
59419;BME280;45224;50.904;6.038;2022-12-18T07:32:52;100778.88;;;-7.01;80.65
59419;BME280;45224;50.904;6.038;2022-12-18T07:34:22;100780.66;;;-7.00;81.13
59419;BME280;45224;50.904;6.038;2022-12-18T07:35:53;100774.38;;;-6.95;80.74
59419;BME280;45224;50.904;6.038;2022-12-18T07:37:23;100759.81;;;-6.89;80.53
59419;BME280;45224;50.904;6.038;2022-12-18T07:38:54;100759.03;;;-6.98;80.64
59419;BME280;45224;50.904;6.038;2022-12-18T07:40:24;100746.84;;;-7.04;80.64
59419;BME280;45224;50.904;6.038;2022-12-18T07:41:55;100751.00;;;-6.94;81.01
59419;BME280;45224;50.904;6.038;2022-12-18T07:43:44;100744.47;;;-6.92;80.39
59419;BME280;45224;50.904;6.038;2022-12-18T07:45:15;100751.03;;;-6.84;80.27
59419;BME280;45224;50.904;6.038;2022-12-18T07:46:45;100751.53;;;-6.88;80.05
59419;BME280;45224;50.904;6.038;2022-12-18T07:48:16;100749.25;;;-6.95;80.35
59419;BME280;45224;50.904;6.038;2022-12-18T07:49:46;100755.78;;;-6.97;80.96
59419;BME280;45224;50.904;6.038;2022-12-18T07:51:18;100747.38;;;-6.87;80.60
59419;BME280;45224;50.904;6.038;2022-12-18T07:52:49;100739.31;;;-6.83;80.67
59419;BME280;45224;50.904;6.038;2022-12-18T07:54:20;100736.19;;;-6.81;80.76
59419;BME280;45224;50.904;6.038;2022-12-18T07:55:58;100739.09;;;-6.76;80.59
59419;BME280;45224;50.904;6.038;2022-12-18T07:57:29;100731.31;;;-6.79;80.55
59419;BME280;45224;50.904;6.038;2022-12-18T07:58:59;100723.38;;;-6.84;80.77
59419;BME280;45224;50.904;6.038;2022-12-18T08:00:30;100720.13;;;-6.83;80.78
59419;BME280;45224;50.904;6.038;2022-12-18T08:02:01;100726.63;;;-6.85;81.07
59419;BME280;45224;50.904;6.038;2022-12-18T08:03:32;100720.38;;;-6.80;81.29
59419;BME280;45224;50.904;6.038;2022-12-18T08:05:03;100716.72;;;-6.73;80.64
59419;BME280;45224;50.904;6.038;2022-12-18T08:06:33;100713.91;;;-6.86;80.88
59419;BME280;45224;50.904;6.038;2022-12-18T08:08:04;100707.66;;;-6.81;81.16
59419;BME280;45224;50.904;6.038;2022-12-18T08:09:34;100711.44;;;-6.76;81.16
59419;BME280;45224;50.904;6.038;2022-12-18T08:11:05;100714.44;;;-6.80;81.15
59419;BME280;45224;50.904;6.038;2022-12-18T08:12:35;100712.81;;;-6.80;81.68
59419;BME280;45224;50.904;6.038;2022-12-18T08:14:06;100705.03;;;-6.72;81.44
59419;BME280;45224;50.904;6.038;2022-12-18T08:15:36;100705.91;;;-6.82;81.77
59419;BME280;45224;50.904;6.038;2022-12-18T08:17:07;100707.53;;;-6.72;81.29
59419;BME280;45224;50.904;6.038;2022-12-18T08:18:37;100704.53;;;-6.68;81.55
59419;BME280;45224;50.904;6.038;2022-12-18T08:20:08;100702.38;;;-6.64;81.54
59419;BME280;45224;50.904;6.038;2022-12-18T08:21:39;100701.03;;;-6.60;81.29
59419;BME280;45224;50.904;6.038;2022-12-18T08:23:09;100708.84;;;-6.57;81.62
59419;BME280;45224;50.904;6.038;2022-12-18T08:24:40;100703.53;;;-6.60;81.45